Other Surface Observations
Issued by NWS Los Angeles, CA

Current Version | Previous Version | Text Only | Print | Product List | Glossary On
Versions: 1 2
000
SXUS56 KLOX 281526
OSOLOX

OFFSHORE OIL PLATFORM IRENE WEATHER
NATIONAL WEATHER SERVICE OXNARD CA
825 AM PST SAT MAR 28 2015

OBSERVATION FROM DRILLING RIG "IRENE"
LOCATION 34 DEG 37 MIN N...120 DEG 44 MIN W...30 MILES SW
OF SANTA MARIA...ANEMOMETER LOCATED 305 FEET ABOVE SEA LEVEL.

SPECI 281410Z 35015KT 0SM FG VV001 12/11 A3008 RMKS SEAS 4 TO
6 FEET

$$




















































































































































































































































































USA.gov is the U.S. government's official web portal to all federal, state and local government web resources and services.